sensor_id;sensor_type;location;lat;lon;timestamp;temperature;humidity
12815;DHT22;6472;52.328;13.070;2023-07-16T00:00:28;20.30;99.90
12815;DHT22;6472;52.328;13.070;2023-07-16T00:02:56;20.30;99.90
12815;DHT22;6472;52.328;13.070;2023-07-16T00:05:24;20.20;99.90
12815;DHT22;6472;52.328;13.070;2023-07-16T00:07:52;20.10;99.90
12815;DHT22;6472;52.328;13.070;2023-07-16T00:10:20;20.10;99.90
12815;DHT22;6472;52.328;13.070;2023-07-16T00:12:48;20.10;99.90
12815;DHT22;6472;52.328;13.070;2023-07-16T00:15:16;20.00;99.90
12815;DHT22;6472;52.328;13.070;2023-07-16T00:17:45;20.00;99.90
12815;DHT22;6472;52.328;13.070;2023-07-16T00:20:13;20.00;99.90
12815;DHT22;6472;52.328;13.070;2023-07-16T00:22:41;20.00;99.90
12815;DHT22;6472;52.328;13.070;2023-07-16T00:25:09;19.90;99.90
12815;DHT22;6472;52.328;13.070;2023-07-16T00:27:37;19.90;99.90
12815;DHT22;6472;52.328;13.070;2023-07-16T00:30:06;20.00;99.90
12815;DHT22;6472;52.328;13.070;2023-07-16T00:32:35;19.90;99.90
12815;DHT22;6472;52.328;13.070;2023-07-16T00:35:05;20.00;99.90
12815;DHT22;6472;52.328;13.070;2023-07-16T00:37:34;20.00;99.90
12815;DHT22;6472;52.328;13.070;2023-07-16T00:40:02;20.00;99.90
12815;DHT22;6472;52.328;13.070;2023-07-16T00:42:30;20.00;99.90
12815;DHT22;6472;52.328;13.070;2023-07-16T00:44:58;20.00;99.90
12815;DHT22;6472;52.328;13.070;2023-07-16T00:47:26;20.00;99.90
12815;DHT22;6472;52.328;13.070;2023-07-16T00:49:54;20.00;99.90
12815;DHT22;6472;52.328;13.070;2023-07-16T00:52:24;20.10;99.90
12815;DHT22;6472;52.328;13.070;2023-07-16T00:54:52;20.10;99.90
12815;DHT22;6472;52.328;13.070;2023-07-16T00:57:20;20.20;99.90
12815;DHT22;6472;52.328;13.070;2023-07-16T00:59:48;20.20;99.90
12815;DHT22;6472;52.328;13.070;2023-07-16T01:02:16;20.30;99.90
12815;DHT22;6472;52.328;13.070;2023-07-16T01:04:44;20.30;99.90
12815;DHT22;6472;52.328;13.070;2023-07-16T01:07:14;20.40;99.90
12815;DHT22;6472;52.328;13.070;2023-07-16T01:09:44;20.40;99.90
12815;DHT22;6472;52.328;13.070;2023-07-16T01:12:13;20.50;99.90
12815;DHT22;6472;52.328;13.070;2023-07-16T01:14:42;20.50;99.90
12815;DHT22;6472;52.328;13.070;2023-07-16T01:17:10;20.50;99.90
12815;DHT22;6472;52.328;13.070;2023-07-16T01:19:38;20.60;99.90
12815;DHT22;6472;52.328;13.070;2023-07-16T01:22:22;20.60;99.90
12815;DHT22;6472;52.328;13.070;2023-07-16T01:25:05;20.60;99.90
12815;DHT22;6472;52.328;13.070;2023-07-16T01:27:57;20.60;99.90
12815;DHT22;6472;52.328;13.070;2023-07-16T01:30:29;20.60;99.90
12815;DHT22;6472;52.328;13.070;2023-07-16T01:32:58;20.60;99.90
12815;DHT22;6472;52.328;13.070;2023-07-16T01:35:26;20.60;99.90
12815;DHT22;6472;52.328;13.070;2023-07-16T01:37:55;20.60;99.90
12815;DHT22;6472;52.328;13.070;2023-07-16T01:40:23;20.60;99.90
12815;DHT22;6472;52.328;13.070;2023-07-16T01:42:51;20.60;99.90
12815;DHT22;6472;52.328;13.070;2023-07-16T01:45:19;20.60;99.90
12815;DHT22;6472;52.328;13.070;2023-07-16T01:47:57;20.70;99.90
12815;DHT22;6472;52.328;13.070;2023-07-16T01:50:27;20.70;99.90
12815;DHT22;6472;52.328;13.070;2023-07-16T01:52:55;20.80;99.90
12815;DHT22;6472;52.328;13.070;2023-07-16T01:55:23;20.80;99.90
12815;DHT22;6472;52.328;13.070;2023-07-16T01:57:51;20.80;99.90
12815;DHT22;6472;52.328;13.070;2023-07-16T02:00:19;20.80;99.90
12815;DHT22;6472;52.328;13.070;2023-07-16T02:02:47;20.80;99.90
12815;DHT22;6472;52.328;13.070;2023-07-16T02:05:17;20.70;99.90
12815;DHT22;6472;52.328;13.070;2023-07-16T02:07:45;20.50;99.90
12815;DHT22;6472;52.328;13.070;2023-07-16T02:10:13;20.30;99.90
12815;DHT22;6472;52.328;13.070;2023-07-16T02:12:41;20.30;99.90
12815;DHT22;6472;52.328;13.070;2023-07-16T02:15:09;20.10;99.90
12815;DHT22;6472;52.328;13.070;2023-07-16T02:17:37;20.10;99.90
12815;DHT22;6472;52.328;13.070;2023-07-16T02:20:07;20.00;99.90
12815;DHT22;6472;52.328;13.070;2023-07-16T02:22:38;20.00;99.90
12815;DHT22;6472;52.328;13.070;2023-07-16T02:25:07;19.80;99.90
12815;DHT22;6472;52.328;13.070;2023-07-16T02:27:35;19.80;99.90
12815;DHT22;6472;52.328;13.070;2023-07-16T02:30:04;19.70;99.90
12815;DHT22;6472;52.328;13.070;2023-07-16T02:32:32;19.60;99.90
12815;DHT22;6472;52.328;13.070;2023-07-16T02:35:00;19.50;99.90
12815;DHT22;6472;52.328;13.070;2023-07-16T02:37:29;19.50;99.90
12815;DHT22;6472;52.328;13.070;2023-07-16T02:39:59;19.50;99.90
12815;DHT22;6472;52.328;13.070;2023-07-16T02:42:27;19.40;99.90
12815;DHT22;6472;52.328;13.070;2023-07-16T02:44:55;19.40;99.90
12815;DHT22;6472;52.328;13.070;2023-07-16T02:47:23;19.40;99.90
12815;DHT22;6472;52.328;13.070;2023-07-16T02:49:51;19.50;99.90
12815;DHT22;6472;52.328;13.070;2023-07-16T02:52:19;19.40;99.90
12815;DHT22;6472;52.328;13.070;2023-07-16T02:54:47;19.40;99.90
12815;DHT22;6472;52.328;13.070;2023-07-16T02:57:17;19.40;99.90
12815;DHT22;6472;52.328;13.070;2023-07-16T02:59:45;19.40;99.90
12815;DHT22;6472;52.328;13.070;2023-07-16T03:02:13;19.30;99.90
12815;DHT22;6472;52.328;13.070;2023-07-16T03:04:41;19.30;99.90
12815;DHT22;6472;52.328;13.070;2023-07-16T03:07:09;19.30;99.90
12815;DHT22;6472;52.328;13.070;2023-07-16T03:09:37;19.20;99.90
12815;DHT22;6472;52.328;13.070;2023-07-16T03:12:07;19.20;99.90
12815;DHT22;6472;52.328;13.070;2023-07-16T03:14:36;19.30;99.90
12815;DHT22;6472;52.328;13.070;2023-07-16T03:17:05;19.20;99.90
12815;DHT22;6472;52.328;13.070;2023-07-16T03:19:33;19.10;99.90
12815;DHT22;6472;52.328;13.070;2023-07-16T03:22:02;19.10;99.90
12815;DHT22;6472;52.328;13.070;2023-07-16T03:24:30;19.10;99.90
12815;DHT22;6472;52.328;13.070;2023-07-16T03:26:58;19.10;99.90
12815;DHT22;6472;52.328;13.070;2023-07-16T03:29:43;19.10;99.90
12815;DHT22;6472;52.328;13.070;2023-07-16T03:32:11;19.10;99.90
12815;DHT22;6472;52.328;13.070;2023-07-16T03:34:39;19.10;99.90
12815;DHT22;6472;52.328;13.070;2023-07-16T03:37:07;19.10;99.90
12815;DHT22;6472;52.328;13.070;2023-07-16T03:39:35;19.00;99.90
12815;DHT22;6472;52.328;13.070;2023-07-16T03:42:04;19.00;99.90
12815;DHT22;6472;52.328;13.070;2023-07-16T03:44:32;19.00;99.90
12815;DHT22;6472;52.328;13.070;2023-07-16T03:47:01;19.00;99.90
12815;DHT22;6472;52.328;13.070;2023-07-16T03:49:30;19.00;99.90
12815;DHT22;6472;52.328;13.070;2023-07-16T03:51:58;19.00;99.90
12815;DHT22;6472;52.328;13.070;2023-07-16T03:54:26;19.00;99.90
12815;DHT22;6472;52.328;13.070;2023-07-16T03:56:54;19.00;99.90
12815;DHT22;6472;52.328;13.070;2023-07-16T03:59:22;19.00;99.90
12815;DHT22;6472;52.328;13.070;2023-07-16T04:01:50;19.10;99.90
12815;DHT22;6472;52.328;13.070;2023-07-16T04:04:20;19.10;99.90
12815;DHT22;6472;52.328;13.070;2023-07-16T04:06:48;19.10;99.90
12815;DHT22;6472;52.328;13.070;2023-07-16T04:09:16;19.10;99.90
12815;DHT22;6472;52.328;13.070;2023-07-16T04:11:43;19.20;99.90
12815;DHT22;6472;52.328;13.070;2023-07-16T04:14:12;19.20;99.90
12815;DHT22;6472;52.328;13.070;2023-07-16T04:16:40;19.20;99.90
12815;DHT22;6472;52.328;13.070;2023-07-16T04:19:08;19.20;99.90
12815;DHT22;6472;52.328;13.070;2023-07-16T04:21:37;19.20;99.90
12815;DHT22;6472;52.328;13.070;2023-07-16T04:24:06;19.20;99.90
12815;DHT22;6472;52.328;13.070;2023-07-16T04:26:34;19.10;99.90
12815;DHT22;6472;52.328;13.070;2023-07-16T04:29:02;19.20;99.90
12815;DHT22;6472;52.328;13.070;2023-07-16T04:31:30;19.20;99.90
12815;DHT22;6472;52.328;13.070;2023-07-16T04:33:58;19.20;99.90
12815;DHT22;6472;52.328;13.070;2023-07-16T04:36:26;19.20;99.90
12815;DHT22;6472;52.328;13.070;2023-07-16T04:38:56;19.20;99.90
12815;DHT22;6472;52.328;13.070;2023-07-16T04:41:24;19.20;99.90
12815;DHT22;6472;52.328;13.070;2023-07-16T04:43:52;19.20;99.90
12815;DHT22;6472;52.328;13.070;2023-07-16T04:46:20;19.20;99.90
12815;DHT22;6472;52.328;13.070;2023-07-16T04:48:48;19.20;99.90
12815;DHT22;6472;52.328;13.070;2023-07-16T04:51:16;19.30;99.90
12815;DHT22;6472;52.328;13.070;2023-07-16T04:53:44;19.30;99.90
12815;DHT22;6472;52.328;13.070;2023-07-16T04:56:14;19.40;99.90
12815;DHT22;6472;52.328;13.070;2023-07-16T04:58:43;19.50;99.90
12815;DHT22;6472;52.328;13.070;2023-07-16T05:01:11;19.50;99.90
12815;DHT22;6472;52.328;13.070;2023-07-16T05:03:39;19.50;99.90
12815;DHT22;6472;52.328;13.070;2023-07-16T05:06:07;19.50;99.90
12815;DHT22;6472;52.328;13.070;2023-07-16T05:08:35;19.50;99.90
12815;DHT22;6472;52.328;13.070;2023-07-16T05:11:03;19.60;99.90
12815;DHT22;6472;52.328;13.070;2023-07-16T05:13:33;19.70;99.90
12815;DHT22;6472;52.328;13.070;2023-07-16T05:16:01;19.70;99.90
12815;DHT22;6472;52.328;13.070;2023-07-16T05:18:29;19.90;99.90
12815;DHT22;6472;52.328;13.070;2023-07-16T05:20:57;20.10;99.90
12815;DHT22;6472;52.328;13.070;2023-07-16T05:23:25;20.50;99.90
12815;DHT22;6472;52.328;13.070;2023-07-16T05:25:53;20.90;99.90
12815;DHT22;6472;52.328;13.070;2023-07-16T05:28:21;21.20;99.90
12815;DHT22;6472;52.328;13.070;2023-07-16T05:30:59;21.30;99.90
12815;DHT22;6472;52.328;13.070;2023-07-16T05:33:27;21.20;99.90
12815;DHT22;6472;52.328;13.070;2023-07-16T05:35:55;21.10;99.90
12815;DHT22;6472;52.328;13.070;2023-07-16T05:38:23;20.90;99.90
12815;DHT22;6472;52.328;13.070;2023-07-16T05:40:51;20.90;99.90
12815;DHT22;6472;52.328;13.070;2023-07-16T05:43:19;20.80;99.90
12815;DHT22;6472;52.328;13.070;2023-07-16T05:45:48;20.80;99.90
12815;DHT22;6472;52.328;13.070;2023-07-16T05:48:17;21.00;99.90
12815;DHT22;6472;52.328;13.070;2023-07-16T05:50:45;21.20;99.90
12815;DHT22;6472;52.328;13.070;2023-07-16T05:53:14;21.50;99.90
12815;DHT22;6472;52.328;13.070;2023-07-16T05:55:43;21.70;99.90
12815;DHT22;6472;52.328;13.070;2023-07-16T05:58:11;21.90;99.90
12815;DHT22;6472;52.328;13.070;2023-07-16T06:00:39;22.20;99.90
12815;DHT22;6472;52.328;13.070;2023-07-16T06:03:07;22.40;99.90
12815;DHT22;6472;52.328;13.070;2023-07-16T06:05:36;22.50;99.90
12815;DHT22;6472;52.328;13.070;2023-07-16T06:08:04;22.80;99.90
12815;DHT22;6472;52.328;13.070;2023-07-16T06:10:33;23.10;99.90
12815;DHT22;6472;52.328;13.070;2023-07-16T06:13:01;23.20;99.90
12815;DHT22;6472;52.328;13.070;2023-07-16T06:15:29;23.40;99.90
12815;DHT22;6472;52.328;13.070;2023-07-16T06:17:57;23.40;99.90
12815;DHT22;6472;52.328;13.070;2023-07-16T06:20:26;23.50;99.90
12815;DHT22;6472;52.328;13.070;2023-07-16T06:22:57;23.50;99.90
12815;DHT22;6472;52.328;13.070;2023-07-16T06:25:25;23.60;99.90
12815;DHT22;6472;52.328;13.070;2023-07-16T06:27:53;23.60;99.90
12815;DHT22;6472;52.328;13.070;2023-07-16T06:30:21;23.50;99.90
12815;DHT22;6472;52.328;13.070;2023-07-16T06:32:49;23.50;99.90
12815;DHT22;6472;52.328;13.070;2023-07-16T06:35:17;23.40;99.90
12815;DHT22;6472;52.328;13.070;2023-07-16T06:37:45;23.50;99.90
12815;DHT22;6472;52.328;13.070;2023-07-16T06:40:15;23.60;99.90
12815;DHT22;6472;52.328;13.070;2023-07-16T06:42:43;23.80;99.90
12815;DHT22;6472;52.328;13.070;2023-07-16T06:45:11;23.80;99.90
12815;DHT22;6472;52.328;13.070;2023-07-16T06:47:39;23.90;99.90
12815;DHT22;6472;52.328;13.070;2023-07-16T06:50:08;24.00;99.90
12815;DHT22;6472;52.328;13.070;2023-07-16T06:52:36;24.10;99.90
12815;DHT22;6472;52.328;13.070;2023-07-16T06:55:05;24.20;99.90
12815;DHT22;6472;52.328;13.070;2023-07-16T06:57:34;24.40;99.90
12815;DHT22;6472;52.328;13.070;2023-07-16T07:00:03;24.50;99.90
12815;DHT22;6472;52.328;13.070;2023-07-16T07:02:31;24.60;99.90
12815;DHT22;6472;52.328;13.070;2023-07-16T07:04:59;24.70;99.90
12815;DHT22;6472;52.328;13.070;2023-07-16T07:07:27;24.90;99.90
12815;DHT22;6472;52.328;13.070;2023-07-16T07:09:55;24.90;99.90
12815;DHT22;6472;52.328;13.070;2023-07-16T07:12:25;24.80;99.90
12815;DHT22;6472;52.328;13.070;2023-07-16T07:14:55;24.60;99.90
12815;DHT22;6472;52.328;13.070;2023-07-16T07:17:23;24.40;99.90
12815;DHT22;6472;52.328;13.070;2023-07-16T07:19:51;24.20;99.90
12815;DHT22;6472;52.328;13.070;2023-07-16T07:22:19;24.20;99.90
12815;DHT22;6472;52.328;13.070;2023-07-16T07:24:48;24.20;99.90
12815;DHT22;6472;52.328;13.070;2023-07-16T07:27:17;24.50;99.90
12815;DHT22;6472;52.328;13.070;2023-07-16T07:29:45;24.80;99.90
12815;DHT22;6472;52.328;13.070;2023-07-16T07:32:20;24.90;99.90
12815;DHT22;6472;52.328;13.070;2023-07-16T07:34:49;25.00;99.90
12815;DHT22;6472;52.328;13.070;2023-07-16T07:37:17;25.20;99.90
12815;DHT22;6472;52.328;13.070;2023-07-16T07:39:45;25.20;99.90
12815;DHT22;6472;52.328;13.070;2023-07-16T07:42:14;25.30;99.90
12815;DHT22;6472;52.328;13.070;2023-07-16T07:44:42;25.20;99.90
12815;DHT22;6472;52.328;13.070;2023-07-16T07:47:10;25.10;99.90
12815;DHT22;6472;52.328;13.070;2023-07-16T07:49:40;25.20;99.90
12815;DHT22;6472;52.328;13.070;2023-07-16T07:52:08;25.10;99.90
12815;DHT22;6472;52.328;13.070;2023-07-16T07:54:36;25.10;99.90
12815;DHT22;6472;52.328;13.070;2023-07-16T07:57:05;25.00;99.90
12815;DHT22;6472;52.328;13.070;2023-07-16T07:59:33;25.20;99.90
12815;DHT22;6472;52.328;13.070;2023-07-16T08:02:01;25.20;99.90
12815;DHT22;6472;52.328;13.070;2023-07-16T08:04:29;24.90;99.90
12815;DHT22;6472;52.328;13.070;2023-07-16T08:07:00;24.30;99.90
12815;DHT22;6472;52.328;13.070;2023-07-16T08:09:29;24.00;99.90
12815;DHT22;6472;52.328;13.070;2023-07-16T08:11:57;23.80;99.90
12815;DHT22;6472;52.328;13.070;2023-07-16T08:14:25;23.40;99.90
12815;DHT22;6472;52.328;13.070;2023-07-16T08:16:53;23.50;99.90
12815;DHT22;6472;52.328;13.070;2023-07-16T08:19:21;23.50;99.90
12815;DHT22;6472;52.328;13.070;2023-07-16T08:21:49;23.70;99.90
12815;DHT22;6472;52.328;13.070;2023-07-16T08:24:18;24.10;99.90
12815;DHT22;6472;52.328;13.070;2023-07-16T08:26:46;24.40;99.90
12815;DHT22;6472;52.328;13.070;2023-07-16T08:29:14;24.70;99.90
12815;DHT22;6472;52.328;13.070;2023-07-16T08:31:42;25.00;99.90
12815;DHT22;6472;52.328;13.070;2023-07-16T08:34:11;25.00;99.90
12815;DHT22;6472;52.328;13.070;2023-07-16T08:36:38;25.10;99.90
12815;DHT22;6472;52.328;13.070;2023-07-16T08:39:06;25.10;99.90
12815;DHT22;6472;52.328;13.070;2023-07-16T08:41:36;25.10;99.90
12815;DHT22;6472;52.328;13.070;2023-07-16T08:44:05;24.90;99.90
12815;DHT22;6472;52.328;13.070;2023-07-16T08:46:33;24.70;99.90
12815;DHT22;6472;52.328;13.070;2023-07-16T08:49:02;24.70;99.90
12815;DHT22;6472;52.328;13.070;2023-07-16T08:51:31;24.60;99.90
12815;DHT22;6472;52.328;13.070;2023-07-16T08:54:00;24.40;99.90
12815;DHT22;6472;52.328;13.070;2023-07-16T08:56:28;24.60;99.90
12815;DHT22;6472;52.328;13.070;2023-07-16T08:58:58;24.80;99.90
12815;DHT22;6472;52.328;13.070;2023-07-16T09:01:26;25.20;99.90
12815;DHT22;6472;52.328;13.070;2023-07-16T09:03:55;25.50;99.90
12815;DHT22;6472;52.328;13.070;2023-07-16T09:06:24;25.60;99.90
12815;DHT22;6472;52.328;13.070;2023-07-16T09:08:52;25.70;99.90
12815;DHT22;6472;52.328;13.070;2023-07-16T09:11:22;25.70;99.90
12815;DHT22;6472;52.328;13.070;2023-07-16T09:13:50;25.70;99.90
12815;DHT22;6472;52.328;13.070;2023-07-16T09:16:20;25.40;99.90
12815;DHT22;6472;52.328;13.070;2023-07-16T09:18:48;25.10;99.90
12815;DHT22;6472;52.328;13.070;2023-07-16T09:21:16;25.10;99.90
12815;DHT22;6472;52.328;13.070;2023-07-16T09:23:44;25.30;99.90
12815;DHT22;6472;52.328;13.070;2023-07-16T09:26:12;25.60;99.90
12815;DHT22;6472;52.328;13.070;2023-07-16T09:28:41;25.60;99.90
12815;DHT22;6472;52.328;13.070;2023-07-16T09:31:09;25.80;99.90
12815;DHT22;6472;52.328;13.070;2023-07-16T09:33:40;25.70;99.90
12815;DHT22;6472;52.328;13.070;2023-07-16T09:36:08;25.40;99.90
12815;DHT22;6472;52.328;13.070;2023-07-16T09:38:36;25.30;99.90
12815;DHT22;6472;52.328;13.070;2023-07-16T09:41:05;24.90;99.90
12815;DHT22;6472;52.328;13.070;2023-07-16T09:43:35;24.70;99.90
12815;DHT22;6472;52.328;13.070;2023-07-16T09:46:03;24.60;99.90
12815;DHT22;6472;52.328;13.070;2023-07-16T09:48:31;24.70;99.90
12815;DHT22;6472;52.328;13.070;2023-07-16T09:51:00;24.90;99.90
12815;DHT22;6472;52.328;13.070;2023-07-16T09:53:31;25.00;99.90
12815;DHT22;6472;52.328;13.070;2023-07-16T09:56:01;25.00;99.90
12815;DHT22;6472;52.328;13.070;2023-07-16T09:58:31;24.90;99.90
12815;DHT22;6472;52.328;13.070;2023-07-16T10:01:00;24.90;99.90
12815;DHT22;6472;52.328;13.070;2023-07-16T10:03:29;25.00;99.90
12815;DHT22;6472;52.328;13.070;2023-07-16T10:06:07;25.20;99.90
12815;DHT22;6472;52.328;13.070;2023-07-16T10:08:35;25.50;99.90
12815;DHT22;6472;52.328;13.070;2023-07-16T10:11:03;25.70;99.90
12815;DHT22;6472;52.328;13.070;2023-07-16T10:13:33;25.90;99.90
12815;DHT22;6472;52.328;13.070;2023-07-16T10:16:02;26.20;99.90
12815;DHT22;6472;52.328;13.070;2023-07-16T10:18:32;26.30;99.90
12815;DHT22;6472;52.328;13.070;2023-07-16T10:21:06;26.20;99.90
12815;DHT22;6472;52.328;13.070;2023-07-16T10:23:39;26.00;99.90
12815;DHT22;6472;52.328;13.070;2023-07-16T10:26:09;25.80;99.90
12815;DHT22;6472;52.328;13.070;2023-07-16T10:28:39;25.50;99.90
12815;DHT22;6472;52.328;13.070;2023-07-16T10:31:17;25.40;99.90
12815;DHT22;6472;52.328;13.070;2023-07-16T10:33:57;25.30;99.90
12815;DHT22;6472;52.328;13.070;2023-07-16T10:36:27;25.10;99.90
12815;DHT22;6472;52.328;13.070;2023-07-16T10:39:01;24.90;99.90
12815;DHT22;6472;52.328;13.070;2023-07-16T10:41:31;24.90;99.90
12815;DHT22;6472;52.328;13.070;2023-07-16T10:43:59;24.90;99.90
12815;DHT22;6472;52.328;13.070;2023-07-16T10:46:27;24.70;99.90
12815;DHT22;6472;52.328;13.070;2023-07-16T10:48:56;24.60;99.90
12815;DHT22;6472;52.328;13.070;2023-07-16T10:51:26;24.60;99.90
12815;DHT22;6472;52.328;13.070;2023-07-16T10:53:55;24.60;99.90
12815;DHT22;6472;52.328;13.070;2023-07-16T10:56:24;24.60;99.90
12815;DHT22;6472;52.328;13.070;2023-07-16T10:58:52;24.80;99.90
12815;DHT22;6472;52.328;13.070;2023-07-16T11:01:20;24.90;99.90
12815;DHT22;6472;52.328;13.070;2023-07-16T11:03:48;25.10;99.90
12815;DHT22;6472;52.328;13.070;2023-07-16T11:06:18;25.10;98.50
12815;DHT22;6472;52.328;13.070;2023-07-16T11:08:49;25.30;98.60
12815;DHT22;6472;52.328;13.070;2023-07-16T11:11:27;25.60;93.70
12815;DHT22;6472;52.328;13.070;2023-07-16T11:13:55;25.90;92.30
12815;DHT22;6472;52.328;13.070;2023-07-16T11:16:24;26.00;87.40
12815;DHT22;6472;52.328;13.070;2023-07-16T11:18:52;26.20;89.20
12815;DHT22;6472;52.328;13.070;2023-07-16T11:21:20;26.20;85.30
12815;DHT22;6472;52.328;13.070;2023-07-16T11:23:49;26.30;84.00
12815;DHT22;6472;52.328;13.070;2023-07-16T11:26:18;26.30;83.80
12815;DHT22;6472;52.328;13.070;2023-07-16T11:28:49;26.40;83.20
12815;DHT22;6472;52.328;13.070;2023-07-16T11:31:17;26.40;81.80
12815;DHT22;6472;52.328;13.070;2023-07-16T11:33:48;26.30;81.30
12815;DHT22;6472;52.328;13.070;2023-07-16T11:36:16;26.30;80.80
12815;DHT22;6472;52.328;13.070;2023-07-16T11:38:45;26.20;81.30
12815;DHT22;6472;52.328;13.070;2023-07-16T11:41:15;26.00;83.00
12815;DHT22;6472;52.328;13.070;2023-07-16T11:43:47;25.90;82.20
12815;DHT22;6472;52.328;13.070;2023-07-16T11:46:16;25.90;80.10
12815;DHT22;6472;52.328;13.070;2023-07-16T11:48:45;25.90;79.20
12815;DHT22;6472;52.328;13.070;2023-07-16T11:51:13;25.90;75.00
12815;DHT22;6472;52.328;13.070;2023-07-16T11:53:41;25.80;77.00
12815;DHT22;6472;52.328;13.070;2023-07-16T11:56:09;25.90;76.50
12815;DHT22;6472;52.328;13.070;2023-07-16T11:58:38;25.90;74.90
12815;DHT22;6472;52.328;13.070;2023-07-16T12:01:06;25.90;78.90
12815;DHT22;6472;52.328;13.070;2023-07-16T12:03:34;26.10;74.30
12815;DHT22;6472;52.328;13.070;2023-07-16T12:06:02;26.20;72.90
12815;DHT22;6472;52.328;13.070;2023-07-16T12:08:31;26.40;74.90
12815;DHT22;6472;52.328;13.070;2023-07-16T12:10:58;26.70;72.90
12815;DHT22;6472;52.328;13.070;2023-07-16T12:13:28;26.80;71.80
12815;DHT22;6472;52.328;13.070;2023-07-16T12:15:58;26.70;70.40
12815;DHT22;6472;52.328;13.070;2023-07-16T12:18:26;26.60;70.80
12815;DHT22;6472;52.328;13.070;2023-07-16T12:20:54;26.60;70.80
12815;DHT22;6472;52.328;13.070;2023-07-16T12:23:22;26.50;70.30
12815;DHT22;6472;52.328;13.070;2023-07-16T12:25:50;26.60;70.80
12815;DHT22;6472;52.328;13.070;2023-07-16T12:28:18;26.50;70.80
12815;DHT22;6472;52.328;13.070;2023-07-16T12:30:46;26.50;71.60
12815;DHT22;6472;52.328;13.070;2023-07-16T12:33:15;26.60;72.60
12815;DHT22;6472;52.328;13.070;2023-07-16T12:35:43;26.70;71.90
12815;DHT22;6472;52.328;13.070;2023-07-16T12:38:12;26.60;71.20
12815;DHT22;6472;52.328;13.070;2023-07-16T12:40:40;26.60;76.80
12815;DHT22;6472;52.328;13.070;2023-07-16T12:43:08;26.80;73.00
12815;DHT22;6472;52.328;13.070;2023-07-16T12:45:36;27.10;72.30
12815;DHT22;6472;52.328;13.070;2023-07-16T12:48:04;27.40;68.40
12815;DHT22;6472;52.328;13.070;2023-07-16T12:50:33;27.50;68.00
12815;DHT22;6472;52.328;13.070;2023-07-16T12:53:02;27.70;69.50
12815;DHT22;6472;52.328;13.070;2023-07-16T12:55:30;27.80;63.80
12815;DHT22;6472;52.328;13.070;2023-07-16T12:58:00;28.00;65.80
12815;DHT22;6472;52.328;13.070;2023-07-16T13:00:28;28.20;66.90
12815;DHT22;6472;52.328;13.070;2023-07-16T13:02:56;28.30;62.50
12815;DHT22;6472;52.328;13.070;2023-07-16T13:05:24;28.30;59.40
12815;DHT22;6472;52.328;13.070;2023-07-16T13:07:54;28.10;58.80
12815;DHT22;6472;52.328;13.070;2023-07-16T13:10:23;27.80;61.00
12815;DHT22;6472;52.328;13.070;2023-07-16T13:12:51;28.00;61.40
12815;DHT22;6472;52.328;13.070;2023-07-16T13:15:19;28.20;62.30
12815;DHT22;6472;52.328;13.070;2023-07-16T13:17:47;28.50;60.70
12815;DHT22;6472;52.328;13.070;2023-07-16T13:20:16;28.60;58.90
12815;DHT22;6472;52.328;13.070;2023-07-16T13:22:44;28.70;56.90
12815;DHT22;6472;52.328;13.070;2023-07-16T13:25:14;28.80;55.50
12815;DHT22;6472;52.328;13.070;2023-07-16T13:27:42;29.00;56.90
12815;DHT22;6472;52.328;13.070;2023-07-16T13:30:11;29.10;55.90
12815;DHT22;6472;52.328;13.070;2023-07-16T13:32:40;29.00;56.30
12815;DHT22;6472;52.328;13.070;2023-07-16T13:35:08;28.90;54.80
12815;DHT22;6472;52.328;13.070;2023-07-16T13:37:36;28.90;55.80
12815;DHT22;6472;52.328;13.070;2023-07-16T13:40:06;29.00;54.70
12815;DHT22;6472;52.328;13.070;2023-07-16T13:42:35;29.00;53.40
12815;DHT22;6472;52.328;13.070;2023-07-16T13:45:05;29.20;55.30
12815;DHT22;6472;52.328;13.070;2023-07-16T13:47:33;29.30;55.00
12815;DHT22;6472;52.328;13.070;2023-07-16T13:50:01;29.30;54.40
12815;DHT22;6472;52.328;13.070;2023-07-16T13:52:29;29.30;52.80
12815;DHT22;6472;52.328;13.070;2023-07-16T13:54:57;29.50;53.70
12815;DHT22;6472;52.328;13.070;2023-07-16T13:57:26;29.60;53.80
12815;DHT22;6472;52.328;13.070;2023-07-16T13:59:56;29.50;52.90
12815;DHT22;6472;52.328;13.070;2023-07-16T14:02:24;29.60;52.90
12815;DHT22;6472;52.328;13.070;2023-07-16T14:04:52;29.80;54.40
12815;DHT22;6472;52.328;13.070;2023-07-16T14:07:20;29.80;52.50
12815;DHT22;6472;52.328;13.070;2023-07-16T14:09:48;29.90;52.70
12815;DHT22;6472;52.328;13.070;2023-07-16T14:12:17;29.90;53.00
12815;DHT22;6472;52.328;13.070;2023-07-16T14:14:45;29.90;51.90
12815;DHT22;6472;52.328;13.070;2023-07-16T14:17:14;30.00;51.20
12815;DHT22;6472;52.328;13.070;2023-07-16T14:19:42;29.80;51.10
12815;DHT22;6472;52.328;13.070;2023-07-16T14:22:10;29.60;52.50
12815;DHT22;6472;52.328;13.070;2023-07-16T14:24:40;29.40;51.40
12815;DHT22;6472;52.328;13.070;2023-07-16T14:27:08;29.10;51.00
12815;DHT22;6472;52.328;13.070;2023-07-16T14:29:36;28.70;51.40
12815;DHT22;6472;52.328;13.070;2023-07-16T14:32:22;28.50;53.10
12815;DHT22;6472;52.328;13.070;2023-07-16T14:34:50;28.20;53.00
12815;DHT22;6472;52.328;13.070;2023-07-16T14:37:18;28.30;52.40
12815;DHT22;6472;52.328;13.070;2023-07-16T14:39:46;28.60;52.10
12815;DHT22;6472;52.328;13.070;2023-07-16T14:42:14;28.90;53.30
12815;DHT22;6472;52.328;13.070;2023-07-16T14:44:42;29.00;51.60
12815;DHT22;6472;52.328;13.070;2023-07-16T14:47:10;29.10;51.30
12815;DHT22;6472;52.328;13.070;2023-07-16T14:49:39;29.20;51.60
12815;DHT22;6472;52.328;13.070;2023-07-16T14:52:07;29.40;52.40
12815;DHT22;6472;52.328;13.070;2023-07-16T14:54:35;29.50;50.40
12815;DHT22;6472;52.328;13.070;2023-07-16T14:57:04;29.50;52.40
12815;DHT22;6472;52.328;13.070;2023-07-16T14:59:32;29.30;52.30
12815;DHT22;6472;52.328;13.070;2023-07-16T15:02:01;29.20;52.70
12815;DHT22;6472;52.328;13.070;2023-07-16T15:04:29;29.20;53.00
12815;DHT22;6472;52.328;13.070;2023-07-16T15:06:58;29.20;53.30
12815;DHT22;6472;52.328;13.070;2023-07-16T15:09:26;29.20;51.70
12815;DHT22;6472;52.328;13.070;2023-07-16T15:11:55;29.40;51.50
12815;DHT22;6472;52.328;13.070;2023-07-16T15:14:23;29.20;50.40
12815;DHT22;6472;52.328;13.070;2023-07-16T15:16:50;28.90;50.00
12815;DHT22;6472;52.328;13.070;2023-07-16T15:19:18;28.60;50.60
12815;DHT22;6472;52.328;13.070;2023-07-16T15:21:46;28.30;49.60
12815;DHT22;6472;52.328;13.070;2023-07-16T15:24:16;28.00;50.60
12815;DHT22;6472;52.328;13.070;2023-07-16T15:26:44;27.80;50.70
12815;DHT22;6472;52.328;13.070;2023-07-16T15:29:12;27.90;50.80
12815;DHT22;6472;52.328;13.070;2023-07-16T15:31:40;28.00;50.20
12815;DHT22;6472;52.328;13.070;2023-07-16T15:34:08;28.10;52.00
12815;DHT22;6472;52.328;13.070;2023-07-16T15:36:36;28.10;52.90
12815;DHT22;6472;52.328;13.070;2023-07-16T15:39:04;28.10;51.10